Time;durP1;ratioP1;P1;durP2;ratioP2;P2;SDS_P1;SDS_P2;PMS_P1;PMS_P2;Temp;Humidity;BMP_temperature;BMP_pressure;BME280_temperature;BME280_humidity;BME280_pressure;Samples;Min_cycle;Max_cycle;Signal;HPM_P1;HPM_P2
2023/07/22 00:01:30;;;;;;;3.40;2.90;;;;;;;17.88;59.01;100992.91;4959487;28;104323;-44
2023/07/22 00:03:55;;;;;;;3.30;3.00;;;;;;;17.88;59.15;100990.13;4960239;28;97176;-44
2023/07/22 00:06:20;;;;;;;2.93;2.73;;;;;;;17.89;59.20;100986.06;4959782;28;97240;-44
2023/07/22 00:08:46;;;;;;;3.47;3.17;;;;;;;17.87;59.15;100978.25;4958656;28;111376;-44
2023/07/22 00:11:11;;;;;;;4.40;3.50;;;;;;;17.86;59.14;100985.09;4960317;28;102916;-44
2023/07/22 00:13:36;;;;;;;3.50;3.20;;;;;;;17.85;59.09;100982.84;4959386;28;97328;-44
2023/07/22 00:16:07;;;;;;;3.27;3.03;;;;;;;17.85;59.17;100983.59;4959910;28;96641;-44
2023/07/22 00:18:33;;;;;;;4.00;3.17;;;;;;;17.82;59.25;100976.31;4959926;28;97409;-44
2023/07/22 00:20:58;;;;;;;4.17;3.37;;;;;;;17.79;59.35;100991.31;4960324;28;97375;-44
2023/07/22 00:23:24;;;;;;;3.37;3.00;;;;;;;17.79;59.39;100984.97;4962758;28;97126;-44
2023/07/22 00:25:50;;;;;;;4.10;3.70;;;;;;;17.77;59.48;100996.66;4961894;28;97307;-44
2023/07/22 00:28:15;;;;;;;4.00;3.57;;;;;;;17.76;59.32;100992.38;4959305;28;97154;-44
2023/07/22 00:30:41;;;;;;;4.33;3.93;;;;;;;17.74;59.41;100992.16;4958380;28;108936;-44
2023/07/22 00:33:07;;;;;;;5.80;4.00;;;;;;;17.72;59.31;100989.16;4961783;28;96799;-44
2023/07/22 00:35:33;;;;;;;6.43;4.27;;;;;;;17.70;59.38;100986.16;4958886;28;97080;-44
2023/07/22 00:38:00;;;;;;;7.10;3.73;;;;;;;17.68;59.40;100985.19;4958948;28;97066;-44
2023/07/22 00:40:25;;;;;;;4.77;4.17;;;;;;;17.67;59.48;100992.78;4962336;28;97230;-44
2023/07/22 00:42:50;;;;;;;5.53;3.70;;;;;;;17.65;59.34;100992.56;4960632;28;97189;-44
2023/07/22 00:45:16;;;;;;;3.70;3.40;;;;;;;17.65;59.37;100981.44;4958710;28;97794;-44
2023/07/22 00:47:42;;;;;;;3.80;3.50;;;;;;;17.62;59.50;100988.09;4960576;28;97478;-44
2023/07/22 00:50:07;;;;;;;6.80;4.37;;;;;;;17.60;59.39;100995.47;4959721;28;97249;-44
2023/07/22 00:52:34;;;;;;;4.87;4.03;;;;;;;17.58;59.42;100993.19;4958664;28;97065;-44
2023/07/22 00:55:00;;;;;;;7.57;4.40;;;;;;;17.55;59.59;100994.28;4959820;28;96791;-44
2023/07/22 00:57:25;;;;;;;4.30;3.87;;;;;;;17.56;59.41;100997.81;4959997;28;96854;-46
2023/07/22 00:59:51;;;;;;;6.50;4.17;;;;;;;17.53;59.51;100985.72;4957973;28;97310;-44
2023/07/22 01:02:18;;;;;;;9.13;5.40;;;;;;;17.52;59.48;100989.00;4958615;28;96920;-44
2023/07/22 01:04:43;;;;;;;4.83;4.30;;;;;;;17.51;59.46;100984.75;4960228;28;97361;-44
2023/07/22 01:07:10;;;;;;;4.93;4.27;;;;;;;17.50;59.54;100989.56;4957713;28;97091;-44
2023/07/22 01:09:40;;;;;;;5.17;4.43;;;;;;;17.49;59.62;100990.06;4965364;28;97556;-44
2023/07/22 01:12:06;;;;;;;6.73;4.43;;;;;;;17.45;59.62;100993.13;4964965;28;96759;-44
2023/07/22 01:14:33;;;;;;;4.33;3.70;;;;;;;17.42;59.59;100983.09;4965326;28;96669;-44
2023/07/22 01:17:03;;;;;;;10.27;4.10;;;;;;;17.42;59.67;100991.44;4966015;28;97401;-44
2023/07/22 01:19:30;;;;;;;6.07;4.80;;;;;;;17.39;59.65;100986.94;4964954;28;97759;-44
2023/07/22 01:21:58;;;;;;;4.50;4.10;;;;;;;17.39;59.58;100988.94;4967191;28;98009;-43
2023/07/22 01:24:23;;;;;;;5.07;4.30;;;;;;;17.36;59.69;100990.78;4964567;28;97240;-44
2023/07/22 01:26:49;;;;;;;7.03;4.00;;;;;;;17.36;59.71;100988.00;4966965;28;97416;-44
2023/07/22 01:29:15;;;;;;;5.20;3.90;;;;;;;17.33;59.75;100988.31;4966022;28;96941;-44
2023/07/22 01:31:40;;;;;;;6.00;4.37;;;;;;;17.31;59.68;100983.28;4964994;28;97000;-44
2023/07/22 01:34:06;;;;;;;5.80;3.80;;;;;;;17.30;59.66;100987.31;4965706;28;100529;-44
2023/07/22 01:36:31;;;;;;;6.80;4.10;;;;;;;17.30;59.67;100992.16;4966915;28;96994;-44
2023/07/22 01:38:56;;;;;;;4.53;3.90;;;;;;;17.27;59.75;100982.84;4965201;28;97256;-44
2023/07/22 01:41:22;;;;;;;8.10;4.50;;;;;;;17.27;59.65;100991.19;4966845;28;96985;-44
2023/07/22 01:43:47;;;;;;;5.97;4.03;;;;;;;17.25;59.61;100996.53;4967187;28;96851;-44
2023/07/22 01:46:12;;;;;;;5.67;3.80;;;;;;;17.22;59.58;100986.47;4966782;28;108312;-44
2023/07/22 01:48:38;;;;;;;4.70;3.67;;;;;;;17.20;59.60;100986.25;4962866;28;104449;-44
2023/07/22 01:51:03;;;;;;;4.57;4.17;;;;;;;17.16;59.69;100975.44;4965517;28;97009;-45
2023/07/22 01:53:29;;;;;;;6.27;4.57;;;;;;;17.16;59.75;100981.00;4966023;28;97335;-44
2023/07/22 01:55:54;;;;;;;7.30;4.17;;;;;;;17.15;59.80;100984.28;4967194;28;97343;-44
2023/07/22 01:58:20;;;;;;;6.13;4.47;;;;;;;17.13;59.62;100981.28;4967164;28;97144;-44
2023/07/22 02:00:50;;;;;;;5.13;4.63;;;;;;;17.13;59.85;100981.28;4967407;28;96840;-44
2023/07/22 02:03:15;;;;;;;6.20;4.77;;;;;;;17.11;59.68;100981.06;4966540;28;97202;-44
2023/07/22 02:05:40;;;;;;;4.97;4.43;;;;;;;17.07;59.68;100978.63;4966745;28;100465;-44
2023/07/22 02:08:06;;;;;;;7.80;4.50;;;;;;;17.06;59.79;100990.25;4966816;28;99165;-44
2023/07/22 02:10:31;;;;;;;6.97;4.37;;;;;;;17.03;59.84;100982.97;4965697;28;97464;-44
2023/07/22 02:12:56;;;;;;;4.73;4.23;;;;;;;17.01;59.89;100979.97;4964105;28;97078;-44
2023/07/22 02:15:24;;;;;;;6.80;3.40;;;;;;;17.00;59.91;100987.56;4962885;28;97480;-44
2023/07/22 02:17:49;;;;;;;7.17;4.40;;;;;;;16.98;59.80;100989.38;4966911;28;97625;-44
2023/07/22 02:20:14;;;;;;;5.80;4.70;;;;;;;16.94;59.96;100986.91;4963231;28;97095;-44
2023/07/22 02:22:40;;;;;;;4.80;4.30;;;;;;;16.91;59.94;100999.06;4962844;28;97372;-44
2023/07/22 02:25:06;;;;;;;4.90;4.40;;;;;;;16.89;59.86;100992.53;4963110;28;97643;-45
2023/07/22 02:27:31;;;;;;;8.00;4.27;;;;;;;16.88;59.96;100991.81;4961709;28;97172;-44
2023/07/22 02:29:57;;;;;;;4.90;4.40;;;;;;;16.89;59.97;100990.50;4964600;28;96949;-44
2023/07/22 02:32:22;;;;;;;4.13;3.73;;;;;;;16.86;60.06;100997.13;4965104;28;100671;-44
2023/07/22 02:34:48;;;;;;;9.33;5.10;;;;;;;16.85;59.90;100990.06;4963835;28;97929;-44
2023/07/22 02:37:13;;;;;;;6.43;4.70;;;;;;;16.83;59.90;100991.88;4963743;28;107455;-44
2023/07/22 02:39:38;;;;;;;7.63;4.87;;;;;;;16.81;59.97;100992.41;4964751;28;98621;-44
2023/07/22 02:42:04;;;;;;;7.77;4.80;;;;;;;16.79;59.93;100991.44;4964873;28;97061;-44
2023/07/22 02:44:29;;;;;;;5.83;4.33;;;;;;;16.75;59.97;100994.53;4963783;28;97131;-44
2023/07/22 02:46:54;;;;;;;8.50;4.30;;;;;;;16.76;60.03;100998.03;4963959;28;97167;-44
2023/07/22 02:49:20;;;;;;;5.97;4.83;;;;;;;16.74;60.04;101000.59;4964596;28;97258;-44
2023/07/22 02:51:45;;;;;;;5.90;4.40;;;;;;;16.72;59.98;101003.13;4964350;28;96716;-44
2023/07/22 02:54:10;;;;;;;5.93;4.57;;;;;;;16.68;60.00;100997.91;4963888;28;97056;-44
2023/07/22 02:56:36;;;;;;;6.67;5.37;;;;;;;16.68;60.02;101013.81;4961832;28;103960;-44
2023/07/22 02:59:01;;;;;;;6.43;4.50;;;;;;;16.65;60.04;101000.97;4965171;28;96997;-44
2023/07/22 03:01:26;;;;;;;4.63;4.10;;;;;;;16.62;59.94;101002.03;4964106;28;97600;-44
2023/07/22 03:03:51;;;;;;;4.53;4.13;;;;;;;16.60;59.99;101001.81;4964434;28;96767;-44
2023/07/22 03:06:17;;;;;;;5.20;4.10;;;;;;;16.60;60.07;101004.59;4964390;28;96647;-44
2023/07/22 03:08:42;;;;;;;6.47;4.90;;;;;;;16.57;60.00;101002.84;4964429;28;97246;-44
2023/07/22 03:11:08;;;;;;;6.60;4.20;;;;;;;16.55;59.93;101011.72;4963374;28;96948;-44
2023/07/22 03:13:34;;;;;;;9.00;5.07;;;;;;;16.54;60.01;101001.09;4964816;28;97440;-44
2023/07/22 03:16:03;;;;;;;4.97;4.00;;;;;;;16.54;59.95;101007.41;4963696;28;97379;-44
2023/07/22 03:18:30;;;;;;;6.30;4.47;;;;;;;16.51;60.04;101005.72;4962978;28;97302;-44
2023/07/22 03:20:56;;;;;;;5.20;4.20;;;;;;;16.49;59.99;101013.75;4962860;28;97069;-44
2023/07/22 03:23:22;;;;;;;4.93;4.20;;;;;;;16.48;59.99;101012.28;4963601;28;97416;-44
2023/07/22 03:25:48;;;;;;;10.60;4.00;;;;;;;16.46;60.11;101009.28;4964146;28;104270;-44
2023/07/22 03:28:13;;;;;;;8.60;4.03;;;;;;;16.43;60.06;101011.06;4964499;28;97404;-44
2023/07/22 03:30:38;;;;;;;9.77;5.07;;;;;;;16.39;60.16;101007.84;4963090;28;97433;-44
2023/07/22 03:33:04;;;;;;;5.10;4.60;;;;;;;16.36;60.19;101013.66;4963708;28;104171;-44
2023/07/22 03:35:29;;;;;;;5.20;4.30;;;;;;;16.36;60.23;101019.97;4963690;28;98057;-44
2023/07/22 03:37:55;;;;;;;5.73;4.17;;;;;;;16.34;60.14;101016.22;4963096;28;96919;-44
2023/07/22 03:40:22;;;;;;;6.77;4.60;;;;;;;16.34;60.17;101022.53;4964603;28;97549;-44
2023/07/22 03:42:49;;;;;;;3.73;3.43;;;;;;;16.34;60.10;101016.22;4962060;28;97222;-44
2023/07/22 03:45:14;;;;;;;6.30;4.47;;;;;;;16.31;59.91;101026.38;4962494;28;97588;-44
2023/07/22 03:47:40;;;;;;;5.20;3.83;;;;;;;16.28;60.08;101026.66;4963255;28;97153;-44
2023/07/22 03:50:06;;;;;;;5.77;4.20;;;;;;;16.25;60.10;101031.22;4963110;28;96958;-44
2023/07/22 03:52:32;;;;;;;5.40;3.70;;;;;;;16.25;60.21;101036.78;4960881;28;97546;-47
2023/07/22 03:54:57;;;;;;;8.20;4.30;;;;;;;16.23;60.26;101036.53;4962706;28;108447;-44
2023/07/22 03:57:26;;;;;;;5.03;4.27;;;;;;;16.25;60.34;101034.00;4957370;28;103833;-45
2023/07/22 03:59:55;;;;;;;7.07;4.67;;;;;;;16.24;60.32;101038.06;4962225;28;97461;-44
2023/07/22 04:02:21;;;;;;;4.27;3.87;;;;;;;16.25;60.16;101036.78;4962806;28;97143;-44
2023/07/22 04:04:46;;;;;;;10.00;3.77;;;;;;;16.26;60.09;101040.31;4962532;28;97010;-44
2023/07/22 04:07:11;;;;;;;11.63;5.30;;;;;;;16.26;60.29;101040.31;4961949;28;102848;-44
2023/07/22 04:09:37;;;;;;;4.60;3.43;;;;;;;16.26;60.14;101031.97;4959496;28;99927;-44
2023/07/22 04:12:02;;;;;;;6.03;4.37;;;;;;;16.26;60.17;101034.75;4961777;28;109330;-44
2023/07/22 04:14:27;;;;;;;7.20;4.10;;;;;;;16.25;60.32;101047.88;4962021;28;96949;-44
2023/07/22 04:16:53;;;;;;;6.20;4.17;;;;;;;16.27;60.27;101047.38;4960597;28;99242;-44
2023/07/22 04:19:18;;;;;;;7.93;4.23;;;;;;;16.26;60.25;101051.41;4961515;28;99615;-44
2023/07/22 04:21:43;;;;;;;4.70;3.90;;;;;;;16.24;60.25;101040.84;4960837;28;97461;-44
2023/07/22 04:24:10;;;;;;;4.50;3.93;;;;;;;16.24;60.21;101043.63;4961684;28;101311;-44
2023/07/22 04:26:35;;;;;;;5.03;4.03;;;;;;;16.22;60.10;101045.41;4960819;28;97135;-44
2023/07/22 04:29:01;;;;;;;4.60;3.67;;;;;;;16.20;60.13;101040.38;4955000;28;97277;-44
2023/07/22 04:31:26;;;;;;;5.83;3.90;;;;;;;16.19;60.39;101046.44;4960988;28;97221;-44
2023/07/22 04:33:52;;;;;;;6.87;4.80;;;;;;;16.22;60.37;101046.16;4959539;28;97127;-44
2023/07/22 04:36:17;;;;;;;14.90;4.37;;;;;;;16.24;60.45;101046.38;4962992;28;100097;-44
2023/07/22 04:38:42;;;;;;;9.17;4.70;;;;;;;16.25;60.49;101050.66;4960671;28;97331;-44
2023/07/22 04:41:07;;;;;;;5.57;4.10;;;;;;;16.27;60.50;101056.44;4961134;28;108016;-44
2023/07/22 04:43:33;;;;;;;7.17;4.80;;;;;;;16.30;60.48;101057.41;4961037;28;104831;-44
2023/07/22 04:45:58;;;;;;;7.73;4.90;;;;;;;16.31;60.42;101056.16;4963270;28;96915;-44
2023/07/22 04:48:23;;;;;;;5.70;4.37;;;;;;;16.30;60.60;101057.41;4962583;28;97357;-44
2023/07/22 04:50:49;;;;;;;5.53;4.37;;;;;;;16.32;60.68;101065.97;4962839;28;97202;-44
2023/07/22 04:53:16;;;;;;;8.27;4.40;;;;;;;16.38;60.63;101063.91;4962785;28;97021;-44
2023/07/22 04:55:42;;;;;;;7.40;4.47;;;;;;;16.42;60.48;101058.81;4963287;28;97292;-44
2023/07/22 04:58:08;;;;;;;8.90;4.67;;;;;;;16.46;60.65;101065.56;4962416;28;97722;-44
2023/07/22 05:00:34;;;;;;;7.53;4.50;;;;;;;16.50;60.51;101079.19;4961595;28;97359;-44
2023/07/22 05:03:00;;;;;;;6.73;4.40;;;;;;;16.52;60.65;101070.31;4962011;28;97537;-44
2023/07/22 05:05:25;;;;;;;9.60;5.10;;;;;;;16.54;60.66;101076.88;4962894;28;97347;-44
2023/07/22 05:07:52;;;;;;;6.30;4.20;;;;;;;16.59;60.68;101081.59;4962202;28;97017;-44
2023/07/22 05:10:19;;;;;;;12.63;5.40;;;;;;;16.63;60.57;101073.72;4961501;28;98031;-44
2023/07/22 05:12:44;;;;;;;5.17;3.90;;;;;;;16.70;60.67;101075.16;4962029;28;97244;-44
2023/07/22 05:15:11;;;;;;;6.67;4.63;;;;;;;16.72;60.69;101072.59;4962149;28;96950;-44
2023/07/22 05:17:36;;;;;;;7.37;4.63;;;;;;;16.73;60.67;101083.19;4963279;28;96892;-45
2023/07/22 05:20:03;;;;;;;9.10;4.90;;;;;;;16.76;60.54;101073.81;4962678;28;96741;-44
2023/07/22 05:22:29;;;;;;;8.50;4.80;;;;;;;16.79;60.69;101083.13;4961713;28;97311;-44
2023/07/22 05:24:55;;;;;;;7.00;4.97;;;;;;;16.80;60.81;101092.94;4962188;28;97111;-44
2023/07/22 05:27:21;;;;;;;6.97;4.83;;;;;;;16.82;60.79;101095.97;4960933;28;97027;-44
2023/07/22 05:29:46;;;;;;;6.97;4.87;;;;;;;16.86;60.67;101088.09;4959637;28;97408;-44
2023/07/22 05:32:11;;;;;;;5.30;4.80;;;;;;;16.90;60.79;101091.31;4960743;28;97213;-44
2023/07/22 05:34:37;;;;;;;7.87;5.40;;;;;;;16.95;60.91;101090.50;4961727;28;97244;-44
2023/07/22 05:37:02;;;;;;;5.40;4.33;;;;;;;16.99;60.67;101093.72;4961128;28;96726;-44
2023/07/22 05:39:27;;;;;;;10.10;5.17;;;;;;;17.05;60.72;101091.63;4962493;28;96634;-44
2023/07/22 05:41:53;;;;;;;7.70;4.77;;;;;;;17.11;60.71;101095.06;4962294;28;107795;-44
2023/07/22 05:44:18;;;;;;;12.50;4.50;;;;;;;17.14;60.69;101103.13;4961994;28;97058;-44
2023/07/22 05:46:43;;;;;;;5.40;4.80;;;;;;;17.14;60.79;101096.81;4959894;28;97347;-44
2023/07/22 05:49:10;;;;;;;6.97;4.70;;;;;;;17.21;60.78;101101.75;4960939;28;97069;-44
2023/07/22 05:51:36;;;;;;;6.43;4.70;;;;;;;17.24;60.89;101117.38;4959701;28;97232;-44
2023/07/22 05:54:01;;;;;;;8.40;4.90;;;;;;;17.31;60.78;101107.69;4959334;28;97127;-44
2023/07/22 05:56:26;;;;;;;7.50;4.87;;;;;;;17.36;60.70;101113.16;4963457;28;96636;-44
2023/07/22 05:58:52;;;;;;;6.73;4.50;;;;;;;17.40;60.69;101110.06;4958324;28;97102;-44
2023/07/22 06:01:17;;;;;;;7.20;5.13;;;;;;;17.43;60.74;101112.53;4965285;28;102001;-44
2023/07/22 06:03:43;;;;;;;11.53;5.60;;;;;;;17.45;60.75;101112.75;4968199;28;97388;-45
2023/07/22 06:06:09;;;;;;;6.30;5.00;;;;;;;17.48;60.79;101108.16;4964710;28;97207;-44
2023/07/22 06:08:34;;;;;;;6.00;4.33;;;;;;;17.54;60.88;101115.19;4962789;28;97079;-44
2023/07/22 06:11:00;;;;;;;9.17;5.10;;;;;;;17.59;60.93;101110.81;4962999;28;112918;-44
2023/07/22 06:13:26;;;;;;;7.50;4.23;;;;;;;17.66;60.75;101112.97;4963348;28;97121;-44
2023/07/22 06:15:52;;;;;;;6.83;4.43;;;;;;;17.70;60.74;101111.38;4965272;28;97047;-44
2023/07/22 06:18:18;;;;;;;9.57;4.90;;;;;;;17.73;60.81;101107.56;4965609;28;97718;-44
2023/07/22 06:20:44;;;;;;;7.53;5.00;;;;;;;17.82;60.74;101111.97;4963266;28;97226;-44
2023/07/22 06:23:09;;;;;;;5.47;4.17;;;;;;;17.92;60.75;101115.84;4964803;28;96725;-44
2023/07/22 06:25:34;;;;;;;4.90;3.87;;;;;;;18.00;60.73;101113.19;4964632;28;96915;-44
2023/07/22 06:28:00;;;;;;;8.13;4.60;;;;;;;18.05;60.43;101109.53;4966003;28;97008;-44
2023/07/22 06:30:25;;;;;;;6.50;4.77;;;;;;;18.10;60.53;101122.63;4964385;28;97219;-44
2023/07/22 06:32:51;;;;;;;6.50;4.00;;;;;;;18.10;60.37;101109.44;4964718;28;97434;-44
2023/07/22 06:35:16;;;;;;;6.33;4.67;;;;;;;18.12;60.49;101112.44;4964228;28;96743;-44
2023/07/22 06:37:41;;;;;;;5.90;4.20;;;;;;;18.16;60.40;101106.56;4964496;28;97385;-44
2023/07/22 06:40:07;;;;;;;5.33;3.73;;;;;;;18.21;60.24;101111.28;4964638;28;97118;-44
2023/07/22 06:42:33;;;;;;;5.27;3.87;;;;;;;18.26;60.25;101113.94;4964080;28;96893;-44
2023/07/22 06:44:58;;;;;;;5.03;4.17;;;;;;;18.32;60.01;101105.50;4964114;28;96767;-44
2023/07/22 06:47:23;;;;;;;7.70;3.70;;;;;;;18.38;60.04;101106.91;4964433;28;105266;-44
2023/07/22 06:49:50;;;;;;;4.67;3.60;;;;;;;18.45;60.14;101114.66;4964671;28;97161;-44
2023/07/22 06:52:16;;;;;;;4.80;3.60;;;;;;;18.49;60.06;101108.75;4964424;28;96887;-44
2023/07/22 06:54:41;;;;;;;7.13;3.90;;;;;;;18.54;59.97;101114.19;4965410;28;96903;-44
2023/07/22 06:57:08;;;;;;;5.90;3.60;;;;;;;18.62;60.13;101112.28;4963759;28;97460;-44
2023/07/22 06:59:34;;;;;;;5.57;4.00;;;;;;;18.67;60.07;101119.03;4964124;28;97474;-44
2023/07/22 07:01:59;;;;;;;4.00;3.17;;;;;;;18.76;60.23;101113.03;4964621;28;96627;-44
2023/07/22 07:04:25;;;;;;;3.17;2.57;;;;;;;18.81;59.97;101122.53;4964124;28;96622;-44
2023/07/22 07:06:50;;;;;;;3.73;3.13;;;;;;;18.87;60.09;101114.81;4961634;28;97336;-44
2023/07/22 07:09:16;;;;;;;4.33;3.40;;;;;;;18.90;60.02;101114.47;4965230;28;97008;-44
2023/07/22 07:11:41;;;;;;;4.20;2.90;;;;;;;18.93;59.84;101119.00;4964727;28;96992;-44
2023/07/22 07:14:06;;;;;;;3.83;3.20;;;;;;;18.94;59.60;101120.47;4952393;28;98618;-44
2023/07/22 07:16:33;;;;;;;4.10;2.80;;;;;;;18.96;59.53;101120.69;4961623;28;96821;-44
2023/07/22 07:19:00;;;;;;;2.60;2.40;;;;;;;19.02;59.51;101117.78;4963907;28;98007;-45
2023/07/22 07:21:25;;;;;;;4.23;2.57;;;;;;;19.06;59.51;101121.75;4963054;28;97210;-44
2023/07/22 07:23:52;;;;;;;2.67;2.20;;;;;;;19.10;59.26;101116.59;4962143;28;97204;-45
2023/07/22 07:26:17;;;;;;;5.20;2.60;;;;;;;19.18;59.49;101127.81;4962780;28;97539;-45
2023/07/22 07:28:43;;;;;;;3.63;2.50;;;;;;;19.25;59.53;101132.75;4962402;28;97420;-44
2023/07/22 07:31:09;;;;;;;2.43;2.27;;;;;;;19.33;59.25;101142.69;4961816;28;96958;-44
2023/07/22 07:33:34;;;;;;;3.43;2.23;;;;;;;19.41;59.32;101135.19;4963181;28;96698;-44
2023/07/22 07:36:00;;;;;;;2.97;2.53;;;;;;;19.48;59.42;101138.59;4961876;28;97994;-45
2023/07/22 07:38:25;;;;;;;2.67;2.47;;;;;;;19.49;59.09;101140.09;4962547;28;96956;-45
2023/07/22 07:40:52;;;;;;;5.97;2.53;;;;;;;19.49;58.89;101134.50;4962856;28;97290;-44
2023/07/22 07:43:18;;;;;;;4.70;2.80;;;;;;;19.50;58.91;101139.56;4961861;28;97506;-44
2023/07/22 07:45:43;;;;;;;2.33;2.13;;;;;;;19.52;58.77;101148.13;4960791;28;107718;-44
2023/07/22 07:48:08;;;;;;;2.80;2.17;;;;;;;19.54;58.71;101150.38;4959719;28;115118;-44
2023/07/22 07:50:34;;;;;;;2.83;1.83;;;;;;;19.56;58.63;101136.63;4954701;28;96904;-44
2023/07/22 07:52:59;;;;;;;4.03;2.20;;;;;;;19.55;58.52;101146.31;4951409;28;101649;-44
2023/07/22 07:55:25;;;;;;;2.70;2.50;;;;;;;19.59;58.55;101149.50;4955884;28;97536;-44
2023/07/22 07:57:50;;;;;;;2.07;1.87;;;;;;;19.65;58.29;101144.53;4957113;28;97205;-44
2023/07/22 08:00:16;;;;;;;2.57;2.30;;;;;;;19.73;58.40;101146.09;4961573;28;96878;-44
2023/07/22 08:02:41;;;;;;;4.00;1.70;;;;;;;19.77;58.13;101156.94;4954196;28;96837;-45
2023/07/22 08:05:07;;;;;;;2.00;1.80;;;;;;;19.78;57.96;101147.25;4960469;28;106726;-44
2023/07/22 08:07:32;;;;;;;2.63;2.43;;;;;;;19.79;57.65;101151.56;4961842;28;97044;-44
2023/07/22 08:09:58;;;;;;;2.00;1.80;;;;;;;19.75;57.73;101148.34;4961692;28;98611;-44
2023/07/22 08:12:24;;;;;;;4.00;2.50;;;;;;;19.83;57.52;101143.59;4952595;28;97135;-45
2023/07/22 08:14:50;;;;;;;2.87;1.83;;;;;;;19.89;57.45;101149.78;4956892;28;97458;-45
2023/07/22 08:17:15;;;;;;;2.40;2.20;;;;;;;19.95;57.50;101147.59;4958893;28;96799;-44
2023/07/22 08:19:40;;;;;;;2.70;1.90;;;;;;;20.04;57.24;101147.13;4959997;28;97221;-45
2023/07/22 08:22:06;;;;;;;3.60;2.30;;;;;;;20.17;57.29;101149.84;4961220;28;97314;-44
2023/07/22 08:24:32;;;;;;;3.77;2.30;;;;;;;20.25;57.31;101147.88;4961214;28;97108;-44
2023/07/22 08:26:58;;;;;;;3.03;2.27;;;;;;;20.30;57.17;101144.19;4958624;28;96854;-45
2023/07/22 08:29:24;;;;;;;2.47;2.00;;;;;;;20.33;56.95;101143.09;4961510;28;97170;-44
2023/07/22 08:31:49;;;;;;;5.37;2.83;;;;;;;20.31;56.64;101148.50;4960420;28;97247;-44
2023/07/22 08:34:14;;;;;;;2.80;2.50;;;;;;;20.36;56.80;101141.97;4961065;28;97446;-44
2023/07/22 08:36:39;;;;;;;10.07;2.73;;;;;;;20.42;56.61;101150.97;4961551;28;97162;-45
2023/07/22 08:39:05;;;;;;;2.97;2.70;;;;;;;20.50;56.35;101145.44;4957943;28;98349;-44
2023/07/22 08:41:31;;;;;;;2.90;2.70;;;;;;;20.55;56.29;101150.84;4961881;28;97143;-45
2023/07/22 08:43:59;;;;;;;2.80;2.53;;;;;;;20.54;56.04;101146.56;4963292;28;98007;-45
2023/07/22 08:46:29;;;;;;;3.37;3.07;;;;;;;20.60;55.74;101152.00;4962531;28;97078;-44
2023/07/22 08:48:56;;;;;;;3.60;3.00;;;;;;;20.66;55.81;101150.53;4960399;28;97076;-44
2023/07/22 08:51:28;;;;;;;5.03;3.90;;;;;;;20.74;55.56;101162.53;4961428;28;97057;-44
2023/07/22 08:53:56;;;;;;;3.17;2.90;;;;;;;20.89;55.58;101165.41;4960627;28;96829;-44
2023/07/22 08:56:23;;;;;;;4.67;3.27;;;;;;;21.04;55.20;101164.00;4960801;28;96803;-44
2023/07/22 08:58:50;;;;;;;4.57;3.50;;;;;;;21.07;54.84;101154.50;4960878;28;96819;-44
2023/07/22 09:01:15;;;;;;;7.80;4.40;;;;;;;21.10;54.85;101167.41;4960765;28;97561;-44
2023/07/22 09:03:42;;;;;;;4.17;3.47;;;;;;;21.09;54.82;101163.84;4961418;28;98050;-44
2023/07/22 09:06:07;;;;;;;5.03;3.70;;;;;;;21.11;54.54;101157.69;4961495;28;97329;-44
2023/07/22 09:08:33;;;;;;;8.50;4.03;;;;;;;21.10;54.65;101156.94;4960117;28;96617;-44
2023/07/22 09:10:59;;;;;;;6.73;4.30;;;;;;;21.14;54.74;101153.78;4961165;28;97226;-44
2023/07/22 09:13:26;;;;;;;4.73;4.20;;;;;;;21.19;54.45;101152.88;4958560;28;96903;-43
2023/07/22 09:15:53;;;;;;;3.70;3.40;;;;;;;21.20;54.36;101157.94;4959567;28;97066;-44
2023/07/22 09:18:18;;;;;;;4.10;3.60;;;;;;;21.20;53.97;101162.78;4961483;28;97488;-44
2023/07/22 09:20:43;;;;;;;4.67;3.90;;;;;;;21.27;53.86;101150.84;4961653;28;97108;-44
2023/07/22 09:23:09;;;;;;;5.20;3.97;;;;;;;21.30;53.61;101158.13;4960951;28;97128;-44
2023/07/22 09:25:34;;;;;;;5.23;4.17;;;;;;;21.32;53.53;101156.28;4960330;28;97560;-44
2023/07/22 09:28:02;;;;;;;4.40;3.70;;;;;;;21.36;53.33;101148.25;4961477;28;97219;-44
2023/07/22 09:30:33;;;;;;;4.33;3.57;;;;;;;21.40;52.75;101145.09;4963370;28;97102;-44
2023/07/22 09:33:03;;;;;;;4.53;3.70;;;;;;;21.40;52.63;101145.09;4963254;28;97246;-44
2023/07/22 09:35:44;;;;;;;3.43;3.13;;;;;;;21.42;53.03;101142.50;4964042;28;96739;-44
2023/07/22 09:38:10;;;;;;;5.47;3.10;;;;;;;21.44;53.12;101140.66;4965185;28;97035;-44
2023/07/22 09:40:35;;;;;;;3.53;3.23;;;;;;;21.50;52.94;101130.00;4965114;28;96648;-44
2023/07/22 09:43:02;;;;;;;3.47;3.20;;;;;;;21.57;52.85;101139.72;4963157;28;97433;-44
2023/07/22 09:45:29;;;;;;;3.77;3.47;;;;;;;21.64;52.58;101148.13;4965182;28;97022;-44
2023/07/22 09:47:55;;;;;;;6.60;3.20;;;;;;;21.76;52.62;101128.91;4963541;28;97098;-44
2023/07/22 09:50:22;;;;;;;4.90;4.07;;;;;;;21.85;52.45;101131.19;4964829;28;97136;-44
2023/07/22 09:52:49;;;;;;;4.30;3.90;;;;;;;21.93;52.32;101126.31;4963542;28;97508;-44
2023/07/22 09:55:22;;;;;;;4.20;3.80;;;;;;;22.01;51.42;101129.91;4963220;28;96629;-44
2023/07/22 09:57:50;;;;;;;5.50;3.70;;;;;;;21.96;51.66;101128.03;4964664;28;96800;-44
2023/07/22 10:00:19;;;;;;;4.57;3.70;;;;;;;21.91;51.89;101126.13;4964450;28;97255;-44
2023/07/22 10:02:47;;;;;;;4.07;3.67;;;;;;;21.93;51.84;101134.72;4964872;28;96755;-44
2023/07/22 10:05:15;;;;;;;5.27;3.97;;;;;;;21.94;51.83;101135.50;4963679;28;96804;-44
2023/07/22 10:07:47;;;;;;;5.63;3.47;;;;;;;21.98;51.56;101127.44;4964696;28;98268;-44
2023/07/22 10:10:15;;;;;;;5.03;3.63;;;;;;;21.97;51.70;101126.72;4963247;28;97082;-44
2023/07/22 10:12:42;;;;;;;6.33;3.90;;;;;;;21.99;51.61;101134.56;4965291;28;96777;-44
2023/07/22 10:15:10;;;;;;;5.00;3.73;;;;;;;22.07;51.87;101135.28;4962140;28;97151;-44
2023/07/22 10:17:36;;;;;;;3.70;3.40;;;;;;;22.15;51.76;101128.38;4963987;28;97104;-44
2023/07/22 10:20:06;;;;;;;3.80;3.50;;;;;;;22.22;51.62;101130.44;4961783;28;96796;-44
2023/07/22 10:22:37;;;;;;;3.60;3.30;;;;;;;22.36;50.89;101133.78;4962500;28;96764;-43
2023/07/22 10:25:08;;;;;;;4.17;3.60;;;;;;;22.41;50.39;101126.47;4962879;28;99945;-44
2023/07/22 10:27:35;;;;;;;5.47;3.93;;;;;;;22.47;50.65;101124.22;4963646;28;97217;-44
2023/07/22 10:30:01;;;;;;;4.50;4.10;;;;;;;22.58;50.68;101126.63;4963610;28;96964;-44
2023/07/22 10:32:39;;;;;;;3.87;3.57;;;;;;;22.63;49.18;101129.25;4964088;28;97442;-44
2023/07/22 10:35:08;;;;;;;4.57;4.17;;;;;;;22.62;49.96;101119.34;4961924;28;97131;-44
2023/07/22 10:37:33;;;;;;;3.93;3.53;;;;;;;22.64;50.09;101124.38;4963026;28;97338;-44
2023/07/22 10:40:19;;;;;;;4.33;3.53;;;;;;;22.70;49.76;101119.31;4962810;28;97393;-43
2023/07/22 10:42:53;;;;;;;4.23;3.83;;;;;;;22.72;49.56;101120.25;4960990;28;97141;-44
2023/07/22 10:45:29;;;;;;;4.27;3.87;;;;;;;22.75;48.79;101123.97;4963199;28;99794;-44
2023/07/22 10:48:06;;;;;;;3.90;3.60;;;;;;;22.78;48.64;101120.78;4962940;28;96880;-44
2023/07/22 10:50:48;;;;;;;3.50;3.20;;;;;;;22.86;49.13;101112.34;4962947;28;96832;-44
2023/07/22 10:53:27;;;;;;;3.87;3.57;;;;;;;22.91;48.57;101112.13;4960631;28;99017;-44
2023/07/22 10:56:16;;;;;;;3.90;3.00;;;;;;;22.90;47.98;101112.69;4961063;28;97152;-44
2023/07/22 10:58:44;;;;;;;3.67;3.37;;;;;;;22.92;48.75;101110.81;4961540;28;97988;-44
2023/07/22 11:01:28;;;;;;;3.80;3.50;;;;;;;22.93;48.26;101112.28;4961479;28;97171;-44
2023/07/22 11:04:13;;;;;;;3.60;3.30;;;;;;;23.00;47.19;101110.75;4960560;28;96803;-44
2023/07/22 11:06:48;;;;;;;3.50;3.20;;;;;;;23.06;48.77;101097.28;4960850;28;98254;-44
2023/07/22 11:09:34;;;;;;;3.50;3.20;;;;;;;23.04;47.80;101094.31;4960213;28;97365;-43
2023/07/22 11:12:18;;;;;;;4.90;3.67;;;;;;;23.01;47.84;101101.03;4962653;28;96810;-44
2023/07/22 11:14:51;;;;;;;3.80;3.50;;;;;;;23.02;48.17;101097.66;4960555;28;97390;-44
2023/07/22 11:17:31;;;;;;;3.73;3.40;;;;;;;23.03;47.87;101099.16;4959152;28;99151;-44
2023/07/22 11:19:57;;;;;;;3.50;3.20;;;;;;;23.13;49.07;101088.81;4958589;28;97475;-43
2023/07/22 11:22:23;;;;;;;3.97;3.57;;;;;;;23.29;48.94;101091.53;4959892;28;97121;-44